Latest Weather Observations for Munglinup West

IDW60801

Issued at 11:35 am WST Tuesday 21 October 2014 (issued every 30 minutes, with the page automatically refreshed every 10 minutes)

About weather observations | Map of weather stations | Latest weather observations for WA | Other Formats
Station Details ID: 012044 Name: MUNGLINUP WEST Lat: -33.55 Lon: 120.70 Height: 220.0 m
Data from the previous 72 hours. | See also: Recent months at Munglinup West
Date/Time
WST
Temp
°C
App
Temp
°C
Dew
Point
Rel
Hum
%
Delta-T
°C
Wind Press
QNH
hPa
Press
MSL
hPa
Rain
since 9 am
mm
Dir
 
Spd
km/h
Gust
km/h
Spd
kts
Gust
kts
21/11:30am 18.2 17.4 14.1 77 2.4 SW 11 19 6 10 1023.1 1022.8 0.0
21/11:00am 17.6 16.4 13.9 79 2.1 S 13 20 7 11 1023.1 1022.8 0.0
21/10:30am 17.8 17.3 13.9 78 2.2 SW 9 15 5 8 1023.2 1022.9 0.0
21/10:00am 17.4 17.5 14.5 83 1.7 WSW 7 11 4 6 1023.2 1022.9 0.0
21/09:30am 15.4 15.0 15.2 99 0.1 WSW 11 17 6 9 1023.2 1022.9 0.0
21/09:00am 14.2 13.5 14.2 100 0.0 W 11 17 6 9 1023.1 1022.8 7.2
21/08:30am 13.4 11.6 13.4 100 0.0 W 15 20 8 11 1023.0 1022.7 7.2
21/08:00am 13.2 - - - - W 15 20 8 11 1022.6 1022.3 7.2
21/07:30am 13.0 - - - - W 11 17 6 9 1022.2 1021.9 7.2
21/07:00am 12.6 10.9 12.6 100 0.0 W 13 19 7 10 1021.8 1021.5 7.2
21/06:30am 12.4 10.3 12.4 100 0.0 W 15 19 8 10 1021.4 1021.0 7.2
21/06:00am 12.3 10.6 12.3 100 0.0 W 13 19 7 10 1021.1 1020.7 7.0
21/05:30am 12.2 10.4 12.2 100 0.0 W 13 19 7 10 1020.6 1020.2 7.0
21/05:00am 12.1 10.3 12.1 100 0.0 W 13 19 7 10 1020.0 1019.6 7.0
21/04:30am 12.3 10.6 12.3 100 0.0 W 13 20 7 11 1019.8 1019.4 7.0
21/04:00am 12.3 10.9 12.3 100 0.0 W 11 15 6 8 1019.3 1019.0 7.0
21/03:30am 12.4 10.7 12.4 100 0.0 W 13 19 7 10 1019.0 1018.7 7.0
21/03:00am 12.5 10.4 12.5 100 0.0 W 15 19 8 10 1018.8 1018.5 7.0
21/02:30am 12.6 10.9 12.6 100 0.0 W 13 19 7 10 1018.6 1018.3 7.0
21/02:00am 12.6 10.6 12.6 100 0.0 W 15 19 8 10 1018.5 1018.2 7.0
21/01:30am 12.7 10.7 12.7 100 0.0 W 15 22 8 12 1018.7 1018.4 7.0
21/01:00am 12.9 11.0 12.9 100 0.0 W 15 20 8 11 1018.7 1018.4 7.0
21/12:30am 13.1 11.5 12.9 99 0.1 W 13 19 7 10 1018.5 1018.2 7.0
21/12:00am 13.2 11.3 13.0 99 0.1 W 15 24 8 13 1018.5 1018.2 7.0
 
Date/Time
WST
Temp
°C
App
Temp
°C
Dew
Point
Rel
Hum
%
Delta-T
°C
Wind Press
QNH
hPa
Press
MSL
hPa
Rain
since 9 am
mm
Dir
 
Spd
km/h
Gust
km/h
Spd
kts
Gust
kts
20/11:30pm 13.4 11.2 13.2 99 0.1 WSW 17 24 9 13 1018.2 1017.9 7.0
20/11:00pm 13.6 11.5 13.6 100 0.0 W 17 22 9 12 1018.5 1018.2 7.0
20/10:30pm 13.8 11.4 13.8 100 0.0 W 19 26 10 14 1018.6 1018.3 7.0
20/10:00pm 14.1 12.2 14.1 100 0.0 W 17 22 9 12 1018.5 1018.2 7.0
20/09:30pm 14.3 12.1 14.3 100 0.0 WSW 19 26 10 14 1018.5 1018.2 7.0
20/09:00pm 14.6 13.6 14.6 100 0.0 W 13 19 7 10 1018.4 1018.1 7.0
20/08:30pm 14.9 14.0 14.9 100 0.0 W 13 17 7 9 1018.3 1018.0 7.0
20/08:00pm 14.9 15.2 14.9 100 0.0 NW 7 11 4 6 1018.0 1017.7 7.0
20/07:30pm 15.3 15.7 15.3 100 0.0 WNW 7 13 4 7 1017.5 1017.1 7.0
20/07:00pm 15.3 16.3 15.3 100 0.0 WNW 4 7 2 4 1016.9 1016.5 6.8
20/06:30pm 15.4 16.0 15.4 100 0.0 W 6 9 3 5 1016.6 1016.2 6.2
20/06:00pm 15.6 16.1 15.6 100 0.0 SSW 7 11 4 6 1015.9 1015.5 5.2
20/05:30pm 15.8 14.9 15.8 100 0.0 SSW 15 19 8 10 1015.4 1015.0 5.2
20/05:00pm 16.0 15.9 16.0 100 0.0 WSW 11 19 6 10 1014.8 1014.5 5.2
20/04:30pm 15.4 14.5 14.9 97 0.3 SW 13 20 7 11 1014.6 1014.3 4.6
20/04:00pm 17.6 16.4 16.1 91 0.9 W 17 24 9 13 1013.9 1013.6 2.6
20/03:30pm 17.6 16.4 17.0 96 0.4 WSW 19 30 10 16 1013.5 1013.1 2.6
20/03:00pm 16.9 16.3 16.6 98 0.2 WSW 15 22 8 12 1013.2 1012.8 2.4
20/02:30pm 20.7 17.9 13.2 62 4.3 WNW 20 30 11 16 1012.4 1012.0 0.2
20/02:00pm 21.7 18.6 13.3 59 4.9 WNW 22 32 12 17 1012.3 1011.9 0.2
20/01:30pm 20.6 17.4 13.1 62 4.3 WNW 22 33 12 18 1012.5 1012.1 0.2
20/01:00pm 20.3 18.0 14.0 67 3.7 WNW 19 28 10 15 1012.6 1012.2 0.2
20/12:30pm 21.1 18.0 13.3 61 4.5 NW 22 32 12 17 1012.6 1012.2 0.2
20/12:00pm 19.3 15.6 12.6 65 3.8 NW 24 37 13 20 1012.6 1012.2 0.2
20/11:30am 17.8 14.7 13.5 76 2.5 NW 22 39 12 21 1012.7 1012.3 0.0
20/11:00am 17.7 14.9 13.2 75 2.6 NW 20 35 11 19 1012.8 1012.4 0.0
20/10:30am 18.7 16.1 13.1 70 3.2 NNW 19 28 10 15 1012.8 1012.4 0.0
20/10:00am 17.8 14.7 12.3 70 3.1 NNW 20 32 11 17 1013.0 1012.6 0.0
20/09:30am 17.2 13.4 12.3 73 2.7 NW 24 37 13 20 1013.1 1012.7 0.0
20/09:00am 16.9 13.7 13.0 78 2.2 NW 22 32 12 17 1013.1 1012.7 13.0
20/08:30am 16.2 13.2 12.7 80 2.0 NNW 20 28 11 15 1013.2 1012.8 13.0
20/08:00am 14.4 11.3 12.3 87 1.2 NNW 20 32 11 17 1013.3 1012.9 13.0
20/07:30am 13.6 9.0 12.2 91 0.8 NNW 28 39 15 21 1013.0 1012.6 13.0
20/07:00am 13.2 9.5 12.7 97 0.3 NNW 24 37 13 20 1012.7 1012.3 13.0
20/06:30am 12.2 8.6 12.0 99 0.1 NNW 22 33 12 18 1012.5 1012.1 13.0
20/06:00am 12.3 9.4 12.3 100 0.0 NNW 19 28 10 15 1012.2 1011.8 13.0
20/05:30am 11.7 8.4 11.7 100 0.0 N 20 30 11 16 1012.0 1011.6 13.0
20/05:00am 11.6 8.3 11.6 100 0.0 N 20 30 11 16 1012.1 1011.7 13.0
20/04:30am 11.5 8.4 11.5 100 0.0 N 19 26 10 14 1011.7 1011.3 13.0
20/04:00am 11.6 8.9 11.6 100 0.0 N 17 22 9 12 1011.6 1011.2 13.0
20/03:30am 11.8 9.1 11.8 100 0.0 N 17 26 9 14 1011.5 1011.1 13.0
20/03:00am 11.9 9.3 11.9 100 0.0 N 17 24 9 13 1011.3 1010.9 13.0
20/02:30am 12.2 8.7 12.2 100 0.0 N 22 30 12 16 1011.0 1010.6 13.0
20/02:00am 12.2 10.0 12.2 100 0.0 N 15 20 8 11 1010.9 1010.5 13.0
20/01:30am 12.2 9.7 12.2 100 0.0 N 17 20 9 11 1011.0 1010.6 13.0
20/01:00am 12.4 9.4 12.4 100 0.0 N 20 28 11 15 1011.0 1010.6 13.0
20/12:30am 12.4 9.5 12.4 100 0.0 NNE 19 24 10 13 1011.1 1010.7 13.0
20/12:00am 12.4 9.4 12.4 100 0.0 NNE 20 30 11 16 1011.0 1010.6 12.8
 
Date/Time
WST
Temp
°C
App
Temp
°C
Dew
Point
Rel
Hum
%
Delta-T
°C
Wind Press
QNH
hPa
Press
MSL
hPa
Rain
since 9 am
mm
Dir
 
Spd
km/h
Gust
km/h
Spd
kts
Gust
kts
19/11:30pm 12.5 9.1 12.5 100 0.0 NNE 22 30 12 16 1011.1 1010.7 12.8
19/11:00pm 12.4 9.4 12.4 100 0.0 NNE 20 30 11 16 1011.1 1010.7 12.8
19/10:30pm 12.7 10.3 12.7 100 0.0 NNE 17 24 9 13 1011.4 1011.0 12.8
19/10:00pm 13.2 10.6 13.2 100 0.0 NNE 19 24 10 13 1011.9 1011.5 12.8
19/09:30pm 13.5 12.1 13.5 100 0.0 ENE 13 19 7 10 1011.9 1011.5 12.8
19/09:00pm 13.8 13.6 13.6 99 0.1 N 7 13 4 7 1013.3 1012.9 12.8
19/08:30pm 14.0 11.3 13.4 96 0.3 N 20 30 11 16 1014.0 1013.7 11.4
19/08:00pm 14.3 12.2 13.5 95 0.4 NNE 17 24 9 13 1013.4 1013.0 9.6
19/07:30pm 14.4 12.3 13.6 95 0.5 NE 17 26 9 14 1012.6 1012.2 9.6
19/07:00pm 14.5 12.8 13.5 94 0.6 NE 15 22 8 12 1011.7 1011.3 9.6
19/06:30pm 14.6 12.0 13.8 95 0.5 ENE 20 30 11 16 1010.8 1010.4 9.6
19/06:00pm 14.6 11.9 13.5 93 0.6 E 20 28 11 15 1010.0 1009.7 9.6
19/05:30pm 14.9 12.0 14.1 95 0.5 E 22 33 12 18 1009.4 1009.0 9.6
19/05:00pm 15.2 12.7 15.2 100 0.0 E 22 32 12 17 1009.4 1009.0 9.6
19/04:30pm 15.7 10.9 15.7 100 0.0 E 35 57 19 31 1009.1 1008.7 9.6
19/04:19pm 16.1 12.1 16.1 100 0.0 E 32 50 17 27 1009.0 1008.6 9.4
19/04:00pm 16.0 11.4 16.0 100 0.0 E 35 50 19 27 1008.4 1008.0 9.2
19/03:55pm 16.0 12.3 16.0 100 0.0 ESE 30 50 16 27 1008.4 1008.0 8.8
19/03:52pm 16.1 14.0 16.1 100 0.0 E 22 33 12 18 1009.9 1009.6 8.8
19/03:30pm 16.3 17.3 16.3 100 0.0 NNE 6 9 3 5 1012.1 1011.7 7.8
19/03:00pm 16.0 15.5 16.0 100 0.0 E 13 17 7 9 1011.6 1011.2 7.2
19/02:30pm 15.7 13.0 15.7 100 0.0 ESE 24 32 13 17 1011.7 1011.3 7.2
19/02:00pm 15.4 - - - - ESE 28 41 15 22 1011.2 1010.8 7.2
19/01:30pm 15.5 - - - - ESE 35 46 19 25 1010.9 1010.5 7.2
19/01:00pm 15.1 - - - - SE 33 50 18 27 1011.3 1010.9 7.2
19/12:32pm 14.0 - - - - SE 39 59 21 32 1011.5 1011.1 7.2
19/12:30pm 14.0 - - - - ESE 37 52 20 28 1011.8 1011.4 7.2
19/12:16pm 13.8 - - - - SE 37 54 20 29 1011.9 1011.5 7.2
19/12:00pm 13.7 - - - - SE 32 48 17 26 1013.9 1013.6 7.2
19/11:30am 13.7 - - - - SE 22 37 12 20 1015.1 1014.7 6.6
19/11:00am 13.6 - - - - SE 28 46 15 25 1015.1 1014.7 5.8
19/10:30am 13.6 - - - - SE 32 44 17 24 1015.4 1015.0 4.0
19/10:00am 13.6 - - - - SE 32 46 17 25 1015.7 1015.3 3.6
19/09:37am 13.4 - - - - SE 33 57 18 31 1015.8 1015.4 2.0
19/09:30am 13.4 - - - - SE 28 41 15 22 1015.9 1015.5 1.8
19/09:00am 12.9 - - - - SE 26 35 14 19 1016.6 1016.2 33.0
19/08:30am 12.7 - - - - ESE 30 48 16 26 1016.9 1016.5 26.0
19/08:00am 12.7 - - - - SE 33 48 18 26 1015.8 1015.4 23.4
19/07:30am 12.6 8.1 12.6 100 0.0 SE 28 39 15 21 1016.1 1015.7 22.2
19/07:15am 12.6 7.7 12.6 100 0.0 SE 30 48 16 26 1016.7 1016.3 19.8
19/07:00am 12.6 7.3 12.6 100 0.0 SE 32 46 17 25 1016.4 1016.0 19.2
19/06:30am 12.6 8.1 12.6 100 0.0 SE 28 43 15 23 1016.6 1016.2 18.4
19/06:00am 12.3 7.3 12.3 100 0.0 SE 30 43 16 23 1016.4 1016.0 18.2
19/05:30am 12.1 6.7 12.1 100 0.0 SE 32 43 17 23 1016.3 1015.9 17.8
19/05:00am 12.1 6.5 12.1 100 0.0 SE 33 46 18 25 1016.3 1015.9 17.4
19/04:30am 12.0 6.9 12.0 100 0.0 SE 30 43 16 23 1016.1 1015.7 17.2
19/04:00am 12.0 6.5 12.0 100 0.0 SE 32 46 17 25 1016.5 1016.1 17.0
19/03:30am 12.1 7.8 12.1 100 0.0 SE 26 33 14 18 1017.3 1016.9 16.8
19/03:00am 12.2 9.3 12.2 100 0.0 SSE 19 26 10 14 1017.7 1017.4 16.6
19/02:30am 12.3 8.4 12.1 99 0.1 SE 24 37 13 20 1016.1 1015.7 16.6
19/02:00am 12.5 9.1 12.5 100 0.0 SE 22 32 12 17 1017.2 1016.8 16.6
19/01:30am 12.5 9.5 12.5 100 0.0 SE 20 28 11 15 1017.6 1017.3 16.6
19/01:00am 12.3 9.4 12.3 100 0.0 SE 19 28 10 15 1017.7 1017.4 16.6
19/12:30am 12.2 9.1 12.2 100 0.0 ESE 20 30 11 16 1017.7 1017.4 16.6
19/12:00am 12.3 9.2 12.3 100 0.0 SSE 20 32 11 17 1018.0 1017.7 16.4
 
Date/Time
WST
Temp
°C
App
Temp
°C
Dew
Point
Rel
Hum
%
Delta-T
°C
Wind Press
QNH
hPa
Press
MSL
hPa
Rain
since 9 am
mm
Dir
 
Spd
km/h
Gust
km/h
Spd
kts
Gust
kts
18/11:30pm 12.5 11.1 12.3 99 0.1 SSE 11 15 6 8 1019.5 1019.2 16.4
18/11:00pm 12.4 10.2 12.1 98 0.2 SSE 15 22 8 12 1018.5 1018.2 16.4
18/10:30pm 12.4 10.1 11.9 97 0.3 SE 15 22 8 12 1019.0 1018.7 16.4
18/10:00pm 12.5 9.5 11.9 96 0.3 SSE 19 26 10 14 1019.0 1018.7 16.4
18/09:30pm 12.5 9.2 11.7 95 0.4 SE 20 30 11 16 1018.8 1018.5 16.4
18/09:00pm 12.8 9.8 11.9 94 0.5 SE 19 26 10 14 1019.2 1018.9 16.4
18/08:30pm 12.9 10.7 12.0 94 0.5 SE 15 22 8 12 1019.4 1019.1 16.4
18/08:00pm 12.7 10.0 11.8 94 0.5 SE 17 22 9 12 1018.9 1018.6 16.4
18/07:30pm 12.8 10.2 11.9 94 0.5 SE 17 26 9 14 1018.3 1018.0 16.4
18/07:00pm 12.8 9.5 11.7 93 0.6 SE 20 28 11 15 1017.7 1017.4 16.4
18/06:30pm 12.7 9.4 11.6 93 0.6 SE 20 30 11 16 1017.0 1016.6 16.4
18/06:00pm 13.0 8.9 11.6 91 0.8 SE 24 37 13 20 1016.5 1016.1 16.4
18/05:30pm 13.3 7.8 11.7 90 0.9 SE 32 46 17 25 1016.0 1015.6 16.4
18/05:00pm 13.3 7.8 11.7 90 0.9 SE 32 48 17 26 1015.6 1015.2 16.4
18/04:45pm 13.4 8.6 11.8 90 0.9 SE 28 46 15 25 1016.0 1015.6 16.4
18/04:30pm 13.7 8.0 11.8 88 1.0 SE 33 44 18 24 1015.8 1015.4 16.4
18/04:00pm 14.3 8.4 12.5 89 1.0 SSE 35 56 19 30 1014.5 1014.2 16.4
18/03:46pm 14.6 9.2 12.8 89 1.0 SSE 33 54 18 29 1014.2 1013.9 16.4
18/03:30pm 14.7 9.1 13.2 91 0.8 SSE 35 48 19 26 1014.3 1014.0 16.4
18/03:00pm 14.4 9.6 14.1 98 0.2 SSE 32 48 17 26 1014.2 1013.9 16.4
18/02:30pm 14.1 9.3 14.1 100 0.0 SSE 32 48 17 26 1013.8 1013.5 16.4
18/02:16pm 14.2 9.5 14.2 100 0.0 SSE 32 52 17 28 1013.9 1013.6 16.4
18/02:00pm 14.2 - - - - SSE 35 48 19 26 1013.8 1013.5 16.4
18/01:47pm 14.3 - - - - SSE 32 52 17 28 1013.9 1013.6 16.4
18/01:30pm 14.5 - - - - S 26 39 14 21 1014.4 1014.1 16.2
18/01:00pm 12.9 - - - - S 26 39 14 21 1015.5 1015.1 15.8
18/12:52pm 12.9 - - - - S 24 35 13 19 1015.4 1015.0 15.4
18/12:42pm 13.0 - - - - SSE 39 59 21 32 1013.5 1013.1 15.4
18/12:30pm 12.9 - - - - S 33 52 18 28 1014.0 1013.7 15.2
18/12:14pm 12.7 - - - - S 28 48 15 26 1014.5 1014.2 13.4
18/12:00pm 12.9 - - - - S 30 43 16 23 1013.9 1013.6 10.8

Other Formats:

Comma delimited format used in spreadsheet applications
http://www.bom.gov.au/fwo/IDW60801/IDW60801.95644.axf

JavaScript Object Notation format (JSON) in row-major order
http://www.bom.gov.au/fwo/IDW60801/IDW60801.95644.json